createdAt,value
2022-11-07T00:02:09.792Z,6.00
2022-11-07T00:04:38.597Z,5.98
2022-11-07T00:07:07.977Z,5.99
2022-11-07T00:09:36.472Z,6.00
2022-11-07T00:12:05.187Z,6.00
2022-11-07T00:14:33.636Z,5.97
2022-11-07T00:17:02.285Z,5.97
2022-11-07T00:19:31.160Z,5.99
2022-11-07T00:21:59.806Z,5.99
2022-11-07T00:24:28.312Z,5.97
2022-11-07T00:26:56.804Z,5.93
2022-11-07T00:29:25.444Z,5.88
2022-11-07T00:31:53.796Z,5.84
2022-11-07T00:34:22.619Z,5.80
2022-11-07T00:36:51.304Z,5.78
2022-11-07T00:39:20.108Z,5.76
2022-11-07T00:41:49.568Z,5.76
2022-11-07T00:44:17.996Z,5.76
2022-11-07T00:46:46.379Z,5.78
2022-11-07T00:49:14.687Z,5.82
2022-11-07T00:51:42.936Z,5.85
2022-11-07T00:54:11.698Z,5.89
2022-11-07T00:56:40.001Z,5.95
2022-11-07T00:59:08.839Z,5.99
2022-11-07T01:01:37.787Z,6.01
2022-11-07T01:04:25.100Z,6.04
2022-11-07T01:06:53.795Z,6.13
2022-11-07T01:09:22.478Z,6.21
2022-11-07T01:11:51.102Z,6.25
2022-11-07T01:14:22.310Z,6.29
2022-11-07T01:16:52.111Z,6.30
2022-11-07T01:19:20.718Z,6.32
2022-11-07T01:21:49.380Z,6.34
2022-11-07T01:24:19.102Z,6.32
2022-11-07T01:26:49.144Z,6.30
2022-11-07T01:29:19.371Z,6.32
2022-11-07T01:31:47.897Z,6.35
2022-11-07T01:34:17.927Z,6.40
2022-11-07T01:36:46.517Z,6.44
2022-11-07T01:39:15.024Z,6.50
2022-11-07T01:41:43.345Z,6.57
2022-11-07T01:44:11.768Z,6.64
2022-11-07T01:46:45.736Z,6.68
2022-11-07T01:49:31.145Z,6.70
2022-11-07T01:52:23.437Z,6.73
2022-11-07T01:55:10.943Z,6.78
2022-11-07T01:57:50.321Z,6.78
2022-11-07T02:00:22.013Z,6.72
2022-11-07T02:02:58.228Z,6.67
2022-11-07T02:05:35.293Z,6.64
2022-11-07T02:08:06.748Z,6.65
2022-11-07T02:10:37.125Z,6.67
2022-11-07T02:13:07.239Z,6.67
2022-11-07T02:15:37.307Z,6.68
2022-11-07T02:18:06.025Z,6.72
2022-11-07T02:20:35.198Z,6.75
2022-11-07T02:23:10.597Z,6.80
2022-11-07T02:25:39.217Z,6.87
2022-11-07T02:28:10.590Z,6.93
2022-11-07T02:30:39.251Z,6.97
2022-11-07T02:33:22.662Z,7.01
2022-11-07T02:35:53.216Z,7.06
2022-11-07T02:38:35.168Z,7.12
2022-11-07T02:41:12.287Z,7.18
2022-11-07T02:43:46.106Z,7.21
2022-11-07T02:46:14.858Z,7.19
2022-11-07T02:48:52.565Z,7.15
2022-11-07T02:51:20.848Z,7.11
2022-11-07T02:53:49.310Z,7.07
2022-11-07T02:56:18.774Z,7.01
2022-11-07T02:58:47.707Z,6.97
2022-11-07T03:01:16.440Z,6.89
2022-11-07T03:03:48.035Z,6.85
2022-11-07T03:06:20.493Z,6.83
2022-11-07T03:08:48.699Z,6.85
2022-11-07T03:11:19.912Z,6.90
2022-11-07T03:13:49.953Z,6.94
2022-11-07T03:16:19.893Z,6.99
2022-11-07T03:18:48.184Z,7.06
2022-11-07T03:21:16.428Z,7.13
2022-11-07T03:23:44.695Z,7.15
2022-11-07T03:26:13.033Z,7.17
2022-11-07T03:28:41.072Z,7.16
2022-11-07T03:31:09.205Z,7.15
2022-11-07T03:33:37.672Z,7.11
2022-11-07T03:36:06.205Z,7.06
2022-11-07T03:38:34.393Z,7.03
2022-11-07T03:41:02.735Z,7.02
2022-11-07T03:43:30.953Z,7.01
2022-11-07T03:45:59.219Z,6.99
2022-11-07T03:48:27.457Z,6.97
2022-11-07T03:50:56.021Z,6.97
2022-11-07T03:53:26.147Z,6.94
2022-11-07T03:55:56.000Z,6.93
2022-11-07T03:58:25.163Z,6.93
2022-11-07T04:00:53.533Z,6.92
2022-11-07T04:03:22.039Z,6.95
2022-11-07T04:05:50.429Z,7.01
2022-11-07T04:08:18.833Z,7.09
2022-11-07T04:10:47.582Z,7.14
2022-11-07T04:13:34.749Z,7.19
2022-11-07T04:16:29.005Z,7.22
2022-11-07T04:18:58.420Z,7.24
2022-11-07T04:21:26.948Z,7.22
2022-11-07T04:23:55.193Z,7.22
2022-11-07T04:27:02.306Z,7.18
2022-11-07T04:29:30.689Z,7.07
2022-11-07T04:31:59.251Z,6.99
2022-11-07T04:34:27.837Z,6.95
2022-11-07T04:36:56.710Z,6.91
2022-11-07T04:39:25.672Z,6.88
2022-11-07T04:41:54.147Z,6.89
2022-11-07T04:44:23.609Z,6.88
2022-11-07T04:46:52.171Z,6.87
2022-11-07T04:49:20.563Z,6.87
2022-11-07T04:51:49.724Z,6.87
2022-11-07T04:54:18.697Z,6.82
2022-11-07T04:56:47.449Z,6.79
2022-11-07T04:59:15.924Z,6.78
2022-11-07T05:01:45.122Z,6.79
2022-11-07T05:04:13.937Z,6.74
2022-11-07T05:06:42.794Z,6.71
2022-11-07T05:09:18.263Z,6.71
2022-11-07T05:11:48.354Z,6.71
2022-11-07T05:14:17.091Z,6.71
2022-11-07T05:16:45.589Z,6.69
2022-11-07T05:19:18.815Z,6.78
2022-11-07T05:21:47.737Z,6.84
2022-11-07T05:24:16.287Z,6.92
2022-11-07T05:26:44.847Z,6.96
2022-11-07T05:29:13.545Z,6.98
2022-11-07T05:31:42.232Z,7.01
2022-11-07T05:34:14.503Z,7.04
2022-11-07T05:36:43.383Z,7.05
2022-11-07T05:39:12.235Z,7.06
2022-11-07T05:41:40.827Z,7.08
2022-11-07T05:44:11.350Z,7.10
2022-11-07T05:46:39.543Z,7.13
2022-11-07T05:49:11.650Z,7.14
2022-11-07T05:51:44.251Z,7.13
2022-11-07T05:54:14.197Z,7.14
2022-11-07T05:56:44.359Z,7.20
2022-11-07T05:59:13.109Z,7.27
2022-11-07T06:01:42.176Z,7.31
2022-11-07T06:04:11.765Z,7.33
2022-11-07T06:06:40.934Z,7.36
2022-11-07T06:09:10.203Z,7.39
2022-11-07T06:11:38.843Z,7.34
2022-11-07T06:14:07.546Z,7.31
2022-11-07T06:16:36.372Z,7.33
2022-11-07T06:19:05.073Z,7.35
2022-11-07T06:21:35.393Z,7.36
2022-11-07T06:24:03.946Z,7.32
2022-11-07T06:26:32.516Z,7.30
2022-11-07T06:29:00.951Z,7.32
2022-11-07T06:31:28.987Z,7.36
2022-11-07T06:33:57.443Z,7.41
2022-11-07T06:36:26.711Z,7.40
2022-11-07T06:38:55.535Z,7.41
2022-11-07T06:41:24.610Z,7.46
2022-11-07T06:43:54.172Z,7.51
2022-11-07T06:46:23.482Z,7.51
2022-11-07T06:48:52.580Z,7.53
2022-11-07T06:51:20.756Z,7.58
2022-11-07T06:53:50.556Z,7.70
2022-11-07T06:56:18.960Z,7.81
2022-11-07T06:59:00.229Z,7.87
2022-11-07T07:01:29.521Z,7.89
2022-11-07T07:03:59.342Z,7.91
2022-11-07T07:06:28.130Z,7.93
2022-11-07T07:08:56.696Z,7.97
2022-11-07T07:11:25.456Z,8.05
2022-11-07T07:14:01.176Z,8.14
2022-11-07T07:16:31.151Z,8.23
2022-11-07T07:18:59.938Z,8.32
2022-11-07T07:21:28.799Z,8.38
2022-11-07T07:23:58.083Z,8.43
2022-11-07T07:26:26.415Z,8.50
2022-11-07T07:28:54.853Z,8.58
2022-11-07T07:31:24.859Z,8.63
2022-11-07T07:33:53.527Z,8.71
2022-11-07T07:36:22.157Z,8.79
2022-11-07T07:38:51.554Z,8.88
2022-11-07T07:41:21.353Z,8.97
2022-11-07T07:43:50.840Z,9.05
2022-11-07T07:46:24.236Z,9.12
2022-11-07T07:48:53.445Z,9.18
2022-11-07T07:51:22.235Z,9.23
2022-11-07T07:53:51.183Z,9.26
2022-11-07T07:56:20.770Z,9.28
2022-11-07T07:58:50.234Z,9.30
2022-11-07T08:01:19.183Z,9.30
2022-11-07T08:04:01.321Z,9.20
2022-11-07T08:06:36.202Z,9.20
2022-11-07T08:09:05.405Z,9.34
2022-11-07T08:11:35.146Z,9.48
2022-11-07T08:14:05.354Z,9.62
2022-11-07T08:16:34.611Z,9.70
2022-11-07T08:19:04.726Z,9.78
2022-11-07T08:21:33.662Z,9.84
2022-11-07T08:24:04.129Z,9.86
2022-11-07T08:26:33.414Z,9.91
2022-11-07T08:29:02.810Z,9.96
2022-11-07T08:31:32.553Z,10.01
2022-11-07T08:34:01.892Z,10.09
2022-11-07T08:36:31.283Z,10.13
2022-11-07T08:39:00.342Z,10.16
2022-11-07T08:41:29.293Z,10.27
2022-11-07T08:43:59.315Z,10.35
2022-11-07T08:46:27.932Z,10.39
2022-11-07T08:48:57.326Z,10.35
2022-11-07T08:51:27.270Z,10.38
2022-11-07T08:53:57.813Z,10.46
2022-11-07T08:56:26.778Z,10.53
2022-11-07T08:58:56.177Z,10.58
2022-11-07T09:01:25.118Z,10.62
2022-11-07T09:03:57.877Z,10.70
2022-11-07T09:06:27.392Z,10.78
2022-11-07T09:08:56.517Z,10.86
2022-11-07T09:11:26.503Z,10.90
2022-11-07T09:13:56.859Z,10.83
2022-11-07T09:16:26.783Z,10.82
2022-11-07T09:18:56.359Z,10.83
2022-11-07T09:21:26.090Z,10.88
2022-11-07T09:23:55.138Z,10.95
2022-11-07T09:26:25.998Z,10.96
2022-11-07T09:29:00.796Z,10.93
2022-11-07T09:31:31.211Z,10.90
2022-11-07T09:34:01.716Z,10.90
2022-11-07T09:36:30.726Z,10.90
2022-11-07T09:39:01.387Z,10.91
2022-11-07T09:42:22.417Z,10.98
2022-11-07T09:44:56.555Z,11.02
2022-11-07T09:48:04.362Z,11.05
2022-11-07T09:50:41.501Z,11.10
2022-11-07T09:53:27.169Z,11.20
2022-11-07T09:55:58.071Z,11.27
2022-11-07T09:58:52.800Z,11.33
2022-11-07T10:01:23.124Z,11.37
2022-11-07T10:04:23.109Z,11.39
2022-11-07T10:06:49.425Z,11.37
2022-11-07T10:09:40.748Z,11.34
2022-11-07T10:12:22.993Z,11.32
2022-11-07T10:15:00.604Z,11.28
2022-11-07T10:18:01.950Z,11.25
2022-11-07T10:20:46.204Z,11.18
2022-11-07T10:23:44.894Z,11.18
2022-11-07T10:26:18.735Z,11.15
2022-11-07T10:29:10.825Z,11.21
2022-11-07T10:31:43.413Z,11.22
2022-11-07T10:34:29.507Z,11.25
2022-11-07T10:36:58.722Z,11.32
2022-11-07T10:39:31.689Z,11.23
2022-11-07T10:42:10.253Z,11.16
2022-11-07T10:44:42.175Z,11.13
2022-11-07T10:47:28.969Z,11.16
2022-11-07T10:50:01.100Z,11.19
2022-11-07T10:52:30.724Z,11.20
2022-11-07T10:55:14.789Z,11.22
2022-11-07T10:57:46.451Z,11.28
2022-11-07T11:00:37.059Z,11.32
2022-11-07T11:03:22.877Z,11.34
2022-11-07T11:05:51.898Z,11.39
2022-11-07T11:08:23.674Z,11.43
2022-11-07T11:10:52.588Z,11.45
2022-11-07T11:13:26.902Z,11.42
2022-11-07T11:16:00.050Z,11.38
2022-11-07T11:18:33.465Z,11.38
2022-11-07T11:21:06.174Z,11.42
2022-11-07T11:23:42.239Z,11.49
2022-11-07T11:26:29.115Z,11.58
2022-11-07T11:29:09.276Z,11.69
2022-11-07T11:31:45.240Z,11.81
2022-11-07T11:34:38.552Z,11.91
2022-11-07T11:37:15.098Z,12.00
2022-11-07T11:39:52.986Z,12.09
2022-11-07T11:42:34.475Z,12.17
2022-11-07T11:45:25.953Z,12.21
2022-11-07T11:48:07.595Z,12.21
2022-11-07T11:50:46.069Z,12.20
2022-11-07T11:53:19.392Z,12.23
2022-11-07T11:56:01.740Z,12.22
2022-11-07T11:58:36.349Z,12.22
2022-11-07T12:01:19.403Z,12.21
2022-11-07T12:04:09.190Z,12.21
2022-11-07T12:06:41.371Z,12.22
2022-11-07T12:09:42.576Z,12.24
2022-11-07T12:12:29.855Z,12.27
2022-11-07T12:15:10.732Z,12.33
2022-11-07T12:17:48.522Z,12.32
2022-11-07T12:20:28.525Z,12.29
2022-11-07T12:23:16.130Z,12.29
2022-11-07T12:25:51.033Z,12.34
2022-11-07T12:28:44.854Z,12.36
2022-11-07T12:31:36.270Z,12.40
2022-11-07T12:34:26.110Z,12.44
2022-11-07T12:37:22.771Z,12.47
2022-11-07T12:40:12.604Z,12.52
2022-11-07T12:43:17.172Z,12.57
2022-11-07T12:46:08.121Z,12.46
2022-11-07T12:48:37.095Z,12.43
2022-11-07T12:51:21.808Z,12.46
2022-11-07T12:54:16.640Z,12.50
2022-11-07T12:56:47.549Z,12.55
2022-11-07T12:59:30.061Z,12.58
2022-11-07T13:02:23.780Z,12.58
2022-11-07T13:05:17.123Z,12.54
2022-11-07T13:08:00.721Z,12.55
2022-11-07T13:11:12.837Z,12.59
2022-11-07T13:14:03.764Z,12.64
2022-11-07T13:16:35.801Z,12.67
2022-11-07T13:19:12.379Z,12.69
2022-11-07T13:21:43.139Z,12.70
2022-11-07T13:24:22.512Z,12.69
2022-11-07T13:26:51.742Z,12.69
2022-11-07T13:29:27.856Z,12.72
2022-11-07T13:32:09.446Z,12.76
2022-11-07T13:34:46.333Z,12.80
2022-11-07T13:37:28.183Z,12.84
2022-11-07T13:40:04.439Z,12.90
2022-11-07T13:42:35.390Z,12.92
2022-11-07T13:45:27.896Z,12.89
2022-11-07T13:48:00.645Z,12.85
2022-11-07T13:50:42.385Z,12.81
2022-11-07T13:53:30.713Z,12.78
2022-11-07T13:56:19.005Z,12.72
2022-11-07T13:58:50.602Z,12.66
2022-11-07T14:01:19.562Z,12.62
2022-11-07T14:03:51.505Z,12.63
2022-11-07T14:06:20.969Z,12.63
2022-11-07T14:08:49.716Z,12.65
2022-11-07T14:11:22.598Z,12.63
2022-11-07T14:13:54.183Z,12.50
2022-11-07T14:16:28.515Z,12.43
2022-11-07T14:19:01.627Z,12.44
2022-11-07T14:21:34.047Z,12.43
2022-11-07T14:24:04.305Z,12.38
2022-11-07T14:26:36.163Z,12.29
2022-11-07T14:29:07.986Z,12.26
2022-11-07T14:31:39.394Z,12.24
2022-11-07T14:34:15.258Z,12.21
2022-11-07T14:37:00.356Z,12.18
2022-11-07T14:39:33.081Z,12.10
2022-11-07T14:42:04.599Z,12.04
2022-11-07T14:44:54.267Z,12.03
2022-11-07T14:47:28.902Z,12.03
2022-11-07T14:49:58.051Z,12.03
2022-11-07T14:52:33.387Z,12.03
2022-11-07T14:55:08.519Z,12.04
2022-11-07T14:57:39.084Z,12.09
2022-11-07T15:00:13.517Z,12.09
2022-11-07T15:02:42.665Z,12.07
2022-11-07T15:05:38.062Z,12.08
2022-11-07T15:08:06.340Z,12.11
2022-11-07T15:10:39.895Z,12.10
2022-11-07T15:13:27.646Z,12.11
2022-11-07T15:16:03.730Z,12.09
2022-11-07T15:18:42.083Z,12.00
2022-11-07T15:21:33.605Z,11.96
2022-11-07T15:24:40.429Z,11.92
2022-11-07T15:27:18.554Z,11.84
2022-11-07T15:29:58.864Z,11.77
2022-11-07T15:32:42.280Z,11.71
2022-11-07T15:38:17.776Z,11.68
2022-11-07T15:40:47.426Z,11.70
2022-11-07T15:43:15.915Z,11.71
2022-11-07T15:45:45.068Z,11.75
2022-11-07T15:48:19.983Z,11.77
2022-11-07T15:50:49.980Z,11.77
2022-11-07T15:53:24.731Z,11.75
2022-11-07T15:55:55.657Z,11.72
2022-11-07T15:58:26.017Z,11.72
2022-11-07T16:00:55.491Z,11.71
2022-11-07T16:03:25.825Z,11.72
2022-11-07T16:05:58.058Z,11.70
2022-11-07T16:08:26.528Z,11.67
2022-11-07T16:11:07.757Z,11.64
2022-11-07T16:13:36.179Z,11.61
2022-11-07T16:16:06.593Z,11.59
2022-11-07T16:18:42.510Z,11.55
2022-11-07T16:21:11.339Z,11.52
2022-11-07T16:23:40.767Z,11.50
2022-11-07T16:26:13.673Z,11.50
2022-11-07T16:28:42.788Z,11.49
2022-11-07T16:31:14.653Z,11.48
2022-11-07T16:33:43.238Z,11.51
2022-11-07T16:36:26.630Z,11.55
2022-11-07T16:38:55.688Z,11.61
2022-11-07T16:41:24.224Z,11.64
2022-11-07T16:43:52.603Z,11.64
2022-11-07T16:46:24.741Z,11.67
2022-11-07T16:49:12.067Z,11.68
2022-11-07T16:51:45.098Z,11.67
2022-11-07T16:54:14.166Z,11.66
2022-11-07T16:56:43.140Z,11.64
2022-11-07T16:59:19.839Z,11.60
2022-11-07T17:01:49.507Z,11.56
2022-11-07T17:04:17.826Z,11.52
2022-11-07T17:06:47.899Z,11.48
2022-11-07T17:09:20.492Z,11.43
2022-11-07T17:11:50.071Z,11.40
2022-11-07T17:14:18.644Z,11.35
2022-11-07T17:16:48.559Z,11.31
2022-11-07T17:19:16.645Z,11.27
2022-11-07T17:21:48.582Z,11.24
2022-11-07T17:24:17.039Z,11.26
2022-11-07T17:26:45.682Z,11.29
2022-11-07T17:29:14.954Z,11.30
2022-11-07T17:31:44.025Z,11.29
2022-11-07T17:34:13.341Z,11.28
2022-11-07T17:36:49.773Z,11.29
2022-11-07T17:39:21.266Z,11.32
2022-11-07T17:41:51.056Z,11.34
2022-11-07T17:44:20.510Z,11.37
2022-11-07T17:46:50.861Z,11.39
2022-11-07T17:49:22.214Z,11.37
2022-11-07T17:51:54.279Z,11.33
2022-11-07T17:54:29.060Z,11.31
2022-11-07T17:56:58.932Z,11.29
2022-11-07T17:59:27.429Z,11.25
2022-11-07T18:01:55.716Z,11.22
2022-11-07T18:04:24.128Z,11.21
2022-11-07T18:06:52.110Z,11.19
2022-11-07T18:09:20.248Z,11.18
2022-11-07T18:11:48.641Z,11.19
2022-11-07T18:14:16.888Z,11.19
2022-11-07T18:16:44.925Z,11.15
2022-11-07T18:19:13.385Z,11.12
2022-11-07T18:21:41.692Z,11.12
2022-11-07T18:24:10.200Z,11.12
2022-11-07T18:26:40.029Z,11.12
2022-11-07T18:29:11.895Z,11.13
2022-11-07T18:31:41.494Z,11.11
2022-11-07T18:34:13.083Z,11.05
2022-11-07T18:36:43.094Z,11.02
2022-11-07T18:39:15.486Z,11.01
2022-11-07T18:41:44.704Z,10.99
2022-11-07T18:44:13.489Z,10.98
2022-11-07T18:46:42.031Z,10.96
2022-11-07T18:49:12.242Z,10.93
2022-11-07T18:51:41.064Z,10.92
2022-11-07T18:54:10.186Z,10.92
2022-11-07T18:56:39.951Z,10.94
2022-11-07T18:59:08.185Z,10.95
2022-11-07T19:01:36.952Z,10.98
2022-11-07T19:04:07.028Z,11.03
2022-11-07T19:06:35.295Z,11.09
2022-11-07T19:09:04.120Z,11.14
2022-11-07T19:11:34.289Z,11.18
2022-11-07T19:14:03.477Z,11.22
2022-11-07T19:16:32.299Z,11.27
2022-11-07T19:19:00.557Z,11.31
2022-11-07T19:21:29.021Z,11.32
2022-11-07T19:23:57.302Z,11.33
2022-11-07T19:26:25.537Z,11.32
2022-11-07T19:28:58.262Z,11.30
2022-11-07T19:31:29.518Z,11.28
2022-11-07T19:34:00.706Z,11.25
2022-11-07T19:36:30.509Z,11.20
2022-11-07T19:38:58.544Z,11.16
2022-11-07T19:41:26.837Z,11.12
2022-11-07T19:43:55.991Z,11.09
2022-11-07T19:46:24.733Z,11.07
2022-11-07T19:48:56.036Z,11.05
2022-11-07T19:51:24.199Z,11.06
2022-11-07T19:53:54.668Z,11.06
2022-11-07T19:56:24.822Z,11.06
2022-11-07T19:58:54.607Z,11.08
2022-11-07T20:01:26.457Z,11.09
2022-11-07T20:03:55.900Z,11.10
2022-11-07T20:06:27.133Z,11.12
2022-11-07T20:08:55.356Z,11.14
2022-11-07T20:11:26.033Z,11.16
2022-11-07T20:14:02.717Z,11.17
2022-11-07T20:16:34.027Z,11.17
2022-11-07T20:19:03.243Z,11.13
2022-11-07T20:21:34.610Z,11.07
2022-11-07T20:24:05.681Z,11.01
2022-11-07T20:26:33.770Z,10.92
2022-11-07T20:29:02.292Z,10.85
2022-11-07T20:31:36.928Z,10.78
2022-11-07T20:34:07.362Z,10.72
2022-11-07T20:36:35.428Z,10.72
2022-11-07T20:39:04.840Z,10.73
2022-11-07T20:41:33.793Z,10.75
2022-11-07T20:44:04.919Z,10.76
2022-11-07T20:46:36.012Z,10.75
2022-11-07T20:49:06.641Z,10.76
2022-11-07T20:51:34.841Z,10.78
2022-11-07T20:54:03.084Z,10.80
2022-11-07T20:56:31.928Z,10.83
2022-11-07T20:59:00.118Z,10.85
2022-11-07T21:01:36.436Z,10.88
2022-11-07T21:04:11.475Z,10.89
2022-11-07T21:06:39.508Z,10.90
2022-11-07T21:09:08.117Z,10.92
2022-11-07T21:11:37.309Z,10.91
2022-11-07T21:14:05.989Z,10.88
2022-11-07T21:16:34.685Z,10.83
2022-11-07T21:19:05.270Z,10.80
2022-11-07T21:21:33.961Z,10.76
2022-11-07T21:24:03.170Z,10.66
2022-11-07T21:26:35.193Z,10.53
2022-11-07T21:29:06.646Z,10.45
2022-11-07T21:31:38.039Z,10.38
2022-11-07T21:34:09.479Z,10.33
2022-11-07T21:36:37.941Z,10.30
2022-11-07T21:39:07.707Z,10.28
2022-11-07T21:41:36.873Z,10.24
2022-11-07T21:44:05.260Z,10.21
2022-11-07T21:46:36.691Z,10.22
2022-11-07T21:49:06.600Z,10.19
2022-11-07T21:51:36.124Z,10.11
2022-11-07T21:54:06.561Z,10.05
2022-11-07T21:56:37.363Z,10.00
2022-11-07T21:59:09.441Z,9.99
2022-11-07T22:01:39.423Z,10.01
2022-11-07T22:04:12.221Z,10.04
2022-11-07T22:06:44.225Z,10.07
2022-11-07T22:09:18.213Z,10.13
2022-11-07T22:11:48.029Z,10.15
2022-11-07T22:14:22.396Z,10.13
2022-11-07T22:16:51.525Z,10.05
2022-11-07T22:19:19.978Z,10.02
2022-11-07T22:21:49.534Z,9.99
2022-11-07T22:24:17.701Z,9.98
2022-11-07T22:26:46.922Z,9.95
2022-11-07T22:29:15.706Z,9.95
2022-11-07T22:31:43.996Z,9.95
2022-11-07T22:34:12.092Z,9.95
2022-11-07T22:36:40.261Z,9.96
2022-11-07T22:39:08.512Z,9.98
2022-11-07T22:41:36.672Z,10.01
2022-11-07T22:44:05.005Z,10.02
2022-11-07T22:46:33.378Z,10.01
2022-11-07T22:49:01.906Z,9.98
2022-11-07T22:51:35.001Z,10.01
2022-11-07T22:54:08.645Z,10.03
2022-11-07T22:56:37.331Z,10.05
2022-11-07T22:59:07.197Z,10.06
2022-11-07T23:01:38.290Z,10.07
2022-11-07T23:04:07.901Z,10.10
2022-11-07T23:06:36.448Z,10.12
2022-11-07T23:09:05.045Z,10.15
2022-11-07T23:11:51.307Z,10.20
2022-11-07T23:14:22.392Z,10.22
2022-11-07T23:16:53.200Z,10.25
2022-11-07T23:19:24.244Z,10.22
2022-11-07T23:21:55.100Z,10.19
2022-11-07T23:24:23.965Z,10.18
2022-11-07T23:26:53.705Z,10.17
2022-11-07T23:29:24.407Z,10.17
2022-11-07T23:31:53.621Z,10.19
2022-11-07T23:34:23.226Z,10.18
2022-11-07T23:36:52.347Z,10.16
2022-11-07T23:39:22.872Z,10.13
2022-11-07T23:41:51.225Z,10.09
2022-11-07T23:44:19.598Z,10.06
2022-11-07T23:47:06.923Z,10.04
2022-11-07T23:49:53.737Z,10.08
2022-11-07T23:52:22.312Z,10.12
2022-11-07T23:55:09.330Z,10.12
2022-11-07T23:57:57.673Z,10.17
